Current Weather

Falcon Fld

Mesa, Arizona (KFFZ)

Report from: Monday, August 15, 2022 4:54 PM MST
Current time: Monday, August 15, 2022 5:37 PM MST

Nearby weather
Weather history
Weather forecast

Temperature37.2°C (99.0°F)
Heat index38.1°C (100.6°F)
Dew point16.7°C (62.1°F)
Winds 5 kts (2.6 m/s, 5.8 mph) West-Southwest (250°)
Visibility10 mi. (16.1 km)
Clouds Sky clear
Altimeter29.76 in.Hg (1008 mB)
Relative humidity30 %
Density altitude2,952 ft. (900 m)
Sea-level pressure100.5 kPa (1005 mB, 29.67 in.Hg)
Max temp last 6 hours37.8°C (100.0°F)
Min temp last 6 hours32.2°C (90.0°F)
Remarks Automated weather observing station with precipitation discriminator
Pressure falling more slowly
Flight conditions Visual Meteorological Conditions
Raw dataKFFZ 152354Z 25005KT 10SM CLR 37/17 A2976 RMK AO2 SLP049 T03720167 10378 20322 56019
An error has occurred. This application may no longer respond until reloaded. Reload 🗙